createdAt,value
2016-12-16T00:00:16.183Z,-1.14
2016-12-16T00:01:25.673Z,-1.12
2016-12-16T00:02:35.588Z,-1.26
2016-12-16T00:03:45.064Z,-1.2
2016-12-16T00:04:54.885Z,-1.28
2016-12-16T00:06:04.350Z,-1.23
2016-12-16T00:07:14.150Z,-1.28
2016-12-16T00:08:23.979Z,-1.25
2016-12-16T00:09:33.788Z,-1.28
2016-12-16T00:10:43.287Z,-1.44
2016-12-16T00:11:53.243Z,-1.42
2016-12-16T00:13:02.774Z,-1.36
2016-12-16T00:14:12.612Z,-1.4
2016-12-16T00:15:22.419Z,-1.39
2016-12-16T00:16:31.734Z,-1.4
2016-12-16T00:17:41.640Z,-1.39
2016-12-16T00:18:51.149Z,-1.44
2016-12-16T00:20:00.634Z,-1.42
2016-12-16T00:21:10.127Z,-1.47
2016-12-16T00:22:19.951Z,-1.42
2016-12-16T00:23:29.520Z,-1.4
2016-12-16T00:24:39.371Z,-1.28
2016-12-16T00:25:49.167Z,-1.2
2016-12-16T00:26:58.012Z,-1.25
2016-12-16T00:28:07.481Z,-1.25
2016-12-16T00:29:17.314Z,-1.1
2016-12-16T00:30:26.507Z,-1.07
2016-12-16T00:31:35.671Z,-1.06
2016-12-16T00:32:45.196Z,-1.1
2016-12-16T00:33:55.050Z,-1.06
2016-12-16T00:35:04.540Z,-1.06
2016-12-16T00:36:14.339Z,-1
2016-12-16T00:37:24.142Z,-0.94
2016-12-16T00:38:33.638Z,-1
2016-12-16T00:39:42.815Z,-0.98
2016-12-16T00:40:52.096Z,-0.95
2016-12-16T00:42:01.929Z,-1.1
2016-12-16T00:43:11.715Z,-1.1
2016-12-16T00:44:21.274Z,-0.98
2016-12-16T00:45:30.759Z,-1.02
2016-12-16T00:46:40.554Z,-1.02
2016-12-16T00:47:50.059Z,-1.1
2016-12-16T00:48:59.545Z,-1.06
2016-12-16T00:50:09.016Z,-1.05
2016-12-16T00:51:19.041Z,-1.09
2016-12-16T00:52:28.860Z,-1.09
2016-12-16T00:53:38.087Z,-0.98
2016-12-16T00:54:47.890Z,-0.87
2016-12-16T00:55:57.590Z,-0.89
2016-12-16T00:57:07.080Z,-0.82
2016-12-16T00:58:16.643Z,-0.84
2016-12-16T00:59:25.688Z,-0.85
2016-12-16T01:00:35.557Z,-0.88
2016-12-16T01:01:45.616Z,-0.84
2016-12-16T01:02:55.086Z,-0.92
2016-12-16T01:04:04.612Z,-0.85
2016-12-16T01:05:14.411Z,-0.95
2016-12-16T01:06:23.981Z,-0.88
2016-12-16T01:07:33.860Z,-0.88
2016-12-16T01:08:43.675Z,-0.89
2016-12-16T01:09:53.213Z,-0.91
2016-12-16T01:11:02.501Z,-0.88
2016-12-16T01:12:12.289Z,-0.92
2016-12-16T01:13:22.086Z,-0.91
2016-12-16T01:14:31.879Z,-0.98
2016-12-16T01:15:41.690Z,-1.05
2016-12-16T01:16:50.563Z,-0.96
2016-12-16T01:18:00.495Z,-1.03
2016-12-16T01:19:09.969Z,-0.92
2016-12-16T01:20:19.749Z,-0.96
2016-12-16T01:21:28.928Z,-1.02
2016-12-16T01:22:38.390Z,-1.06
2016-12-16T01:23:47.920Z,-1.07
2016-12-16T01:24:57.707Z,-1.09
2016-12-16T01:26:07.233Z,-1.14
2016-12-16T01:27:16.422Z,-1.13
2016-12-16T01:28:25.899Z,-1.09
2016-12-16T01:29:35.697Z,-1.09
2016-12-16T01:30:45.210Z,-1.13
2016-12-16T01:31:55.047Z,-1.13
2016-12-16T01:33:04.547Z,-1.14
2016-12-16T01:34:14.415Z,-1.09
2016-12-16T01:35:24.378Z,-1.09
2016-12-16T01:36:33.607Z,-1.05
2016-12-16T01:37:43.385Z,-1.07
2016-12-16T01:38:53.163Z,-1.06
2016-12-16T01:40:02.655Z,-1.05
2016-12-16T01:41:11.842Z,-1.07
2016-12-16T01:42:21.633Z,-1.07
2016-12-16T01:43:30.834Z,-1.06
2016-12-16T01:44:40.300Z,-1.03
2016-12-16T01:45:50.091Z,-0.96
2016-12-16T01:46:59.865Z,-1.02
2016-12-16T01:48:09.676Z,-0.84
2016-12-16T01:49:19.191Z,-0.88
2016-12-16T01:50:28.703Z,-0.89
2016-12-16T01:51:38.560Z,-0.89
2016-12-16T01:52:48.047Z,-0.92
2016-12-16T01:53:57.206Z,-0.92
2016-12-16T01:55:07.130Z,-0.87
2016-12-16T01:56:16.661Z,-0.94
2016-12-16T01:57:26.455Z,-0.96
2016-12-16T01:58:35.981Z,-0.98
2016-12-16T01:59:45.811Z,-0.98
2016-12-16T02:00:55.324Z,-0.96
2016-12-16T02:02:05.107Z,-0.98
2016-12-16T02:03:14.279Z,-0.98
2016-12-16T02:04:24.086Z,-0.98
2016-12-16T02:05:33.911Z,-0.85
2016-12-16T02:06:43.432Z,-0.94
2016-12-16T02:07:52.900Z,-1.02
2016-12-16T02:09:02.431Z,-0.91
2016-12-16T02:10:12.255Z,-0.92
2016-12-16T02:11:22.070Z,-0.88
2016-12-16T02:12:31.552Z,-0.88
2016-12-16T02:13:40.714Z,-0.85
2016-12-16T02:14:50.504Z,-0.94
2016-12-16T02:16:00.298Z,-0.98
2016-12-16T02:17:09.579Z,-1.02
2016-12-16T02:18:19.372Z,-0.91
2016-12-16T02:19:28.883Z,-0.84
2016-12-16T02:20:38.732Z,-0.98
2016-12-16T02:21:48.541Z,-0.98
2016-12-16T02:22:58.027Z,-0.88
2016-12-16T02:24:07.815Z,-0.94
2016-12-16T02:25:17.580Z,-0.92
2016-12-16T02:26:27.237Z,-0.89
2016-12-16T02:27:37.110Z,-0.91
2016-12-16T02:28:46.610Z,-0.85
2016-12-16T02:29:56.108Z,-0.82
2016-12-16T02:31:05.273Z,-0.84
2016-12-16T02:32:14.815Z,-0.91
2016-12-16T02:33:24.606Z,-0.85
2016-12-16T02:34:34.183Z,-0.88
2016-12-16T02:35:43.977Z,-0.89
2016-12-16T02:36:53.871Z,-0.84
2016-12-16T02:38:03.665Z,-0.77
2016-12-16T02:39:13.520Z,-0.74
2016-12-16T02:40:23.357Z,-0.71
2016-12-16T02:41:33.169Z,-0.74
2016-12-16T02:42:42.824Z,-0.69
2016-12-16T02:43:52.628Z,-0.55
2016-12-16T02:45:02.231Z,-0.59
2016-12-16T02:46:11.711Z,-0.6
2016-12-16T02:47:21.239Z,-0.59
2016-12-16T02:48:31.033Z,-0.56
2016-12-16T02:49:40.885Z,-0.63
2016-12-16T02:50:50.659Z,-0.55
2016-12-16T02:52:00.187Z,-0.6
2016-12-16T02:53:09.969Z,-0.52
2016-12-16T02:54:19.768Z,-0.52
2016-12-16T02:55:29.545Z,-0.58
2016-12-16T02:56:39.028Z,-0.64
2016-12-16T02:57:48.820Z,-0.64
2016-12-16T02:58:58.302Z,-0.66
2016-12-16T03:00:08.108Z,-0.67
2016-12-16T03:01:17.946Z,-0.66
2016-12-16T03:02:27.767Z,-0.69
2016-12-16T03:03:37.417Z,-0.59
2016-12-16T03:04:46.927Z,-0.59
2016-12-16T03:05:56.871Z,-0.63
2016-12-16T03:07:06.366Z,-0.64
2016-12-16T03:08:15.856Z,-0.59
2016-12-16T03:09:25.656Z,-0.56
2016-12-16T03:10:35.474Z,-0.59
2016-12-16T03:11:44.952Z,-0.69
2016-12-16T03:12:54.120Z,-0.71
2016-12-16T03:14:03.900Z,-0.7
2016-12-16T03:15:13.402Z,-0.74
2016-12-16T03:16:22.884Z,-0.69
2016-12-16T03:17:32.680Z,-0.77
2016-12-16T03:18:42.147Z,-0.69
2016-12-16T03:19:51.971Z,-0.64
2016-12-16T03:21:01.161Z,-0.59
2016-12-16T03:22:10.938Z,-0.64
2016-12-16T03:23:20.753Z,-0.63
2016-12-16T03:24:30.530Z,-0.74
2016-12-16T03:25:40.320Z,-0.67
2016-12-16T03:26:49.801Z,-0.63
2016-12-16T03:27:59.312Z,-0.64
2016-12-16T03:29:09.098Z,-0.64
2016-12-16T03:30:18.632Z,-0.59
2016-12-16T03:31:28.121Z,-0.56
2016-12-16T03:32:37.897Z,-0.46
2016-12-16T03:33:47.748Z,-0.55
2016-12-16T03:34:57.543Z,-0.46
2016-12-16T03:36:07.314Z,-0.53
2016-12-16T03:37:17.094Z,-0.59
2016-12-16T03:38:26.885Z,-0.55
2016-12-16T03:39:36.661Z,-0.52
2016-12-16T03:40:46.463Z,-0.52
2016-12-16T03:41:56.235Z,-0.6
2016-12-16T03:43:05.753Z,-0.63
2016-12-16T03:44:15.253Z,-0.56
2016-12-16T03:45:24.439Z,-0.63
2016-12-16T03:46:34.226Z,-0.55
2016-12-16T03:47:43.779Z,-0.66
2016-12-16T03:48:52.984Z,-0.64
2016-12-16T03:50:02.708Z,-0.59
2016-12-16T03:51:12.167Z,-0.58
2016-12-16T03:52:21.803Z,-0.53
2016-12-16T03:53:31.329Z,-0.52
2016-12-16T03:54:40.821Z,-0.66
2016-12-16T03:55:50.605Z,-0.63
2016-12-16T03:56:59.454Z,-0.58
2016-12-16T03:58:08.947Z,-0.63
2016-12-16T03:59:18.976Z,-0.63
2016-12-16T04:00:28.460Z,-0.7
2016-12-16T04:01:38.453Z,-0.64
2016-12-16T04:02:48.236Z,-0.58
2016-12-16T04:03:58.051Z,-0.56
2016-12-16T04:05:07.843Z,-0.59
2016-12-16T04:06:17.656Z,-0.58
2016-12-16T04:07:26.826Z,-0.63
2016-12-16T04:08:36.606Z,-0.64
2016-12-16T04:09:46.381Z,-0.63
2016-12-16T04:10:56.174Z,-0.64
2016-12-16T04:12:06.005Z,-0.64
2016-12-16T04:13:15.815Z,-0.69
2016-12-16T04:14:25.620Z,-0.71
2016-12-16T04:15:35.135Z,-0.77
2016-12-16T04:16:44.603Z,-0.78
2016-12-16T04:17:54.396Z,-0.84
2016-12-16T04:19:04.176Z,-0.88
2016-12-16T04:20:13.347Z,-0.88
2016-12-16T04:21:22.943Z,-0.89
2016-12-16T04:22:32.107Z,-0.82
2016-12-16T04:23:41.893Z,-0.76
2016-12-16T04:24:51.705Z,-0.88
2016-12-16T04:26:01.543Z,-0.84
2016-12-16T04:27:11.074Z,-0.78
2016-12-16T04:28:20.869Z,-0.84
2016-12-16T04:29:30.358Z,-0.84
2016-12-16T04:30:39.538Z,-0.82
2016-12-16T04:31:49.333Z,-0.87
2016-12-16T04:32:58.847Z,-0.76
2016-12-16T04:34:08.672Z,-0.87
2016-12-16T04:35:18.487Z,-0.78
2016-12-16T04:36:27.974Z,-0.74
2016-12-16T04:37:37.795Z,-0.82
2016-12-16T04:38:47.641Z,-0.81
2016-12-16T04:39:56.800Z,-0.81
2016-12-16T04:41:06.329Z,-0.88
2016-12-16T04:42:16.230Z,-0.88
2016-12-16T04:43:26.031Z,-0.89
2016-12-16T04:44:35.866Z,-0.85
2016-12-16T04:45:45.670Z,-0.89
2016-12-16T04:46:55.198Z,-0.88
2016-12-16T04:48:05.008Z,-0.81
2016-12-16T04:49:14.463Z,-0.87
2016-12-16T04:50:23.939Z,-0.84
2016-12-16T04:51:33.467Z,-0.88
2016-12-16T04:52:42.750Z,-0.88
2016-12-16T04:53:52.550Z,-0.95
2016-12-16T04:55:02.031Z,-0.84
2016-12-16T04:56:11.187Z,-1.02
2016-12-16T04:57:20.686Z,-0.94
2016-12-16T04:58:30.213Z,-0.98
2016-12-16T04:59:40.022Z,-0.92
2016-12-16T05:00:49.829Z,-1.03
2016-12-16T05:01:59.617Z,-0.98
2016-12-16T05:03:09.390Z,-0.98
2016-12-16T05:04:19.175Z,-0.94
2016-12-16T05:05:28.344Z,-0.94
2016-12-16T05:06:37.538Z,-0.91
2016-12-16T05:07:47.485Z,-0.94
2016-12-16T05:08:56.954Z,-0.96
2016-12-16T05:10:06.457Z,-0.98
2016-12-16T05:11:15.957Z,-1
2016-12-16T05:12:25.785Z,-0.96
2016-12-16T05:13:35.249Z,-0.98
2016-12-16T05:14:44.411Z,-1.1
2016-12-16T05:15:53.914Z,-1.06
2016-12-16T05:17:03.408Z,-1.07
2016-12-16T05:18:13.084Z,-0.98
2016-12-16T05:19:22.604Z,-0.95
2016-12-16T05:20:32.418Z,-0.98
2016-12-16T05:21:42.204Z,-1.06
2016-12-16T05:22:51.711Z,-1.06
2016-12-16T05:24:01.528Z,-1.05
2016-12-16T05:25:10.383Z,-1.1
2016-12-16T05:26:20.069Z,-1.03
2016-12-16T05:27:29.877Z,-1.06
2016-12-16T05:28:39.087Z,-1.14
2016-12-16T05:29:48.633Z,-1.12
2016-12-16T05:30:58.439Z,-1.13
2016-12-16T05:32:08.226Z,-1.07
2016-12-16T05:33:17.695Z,-1.12
2016-12-16T05:34:27.499Z,-1.16
2016-12-16T05:35:36.966Z,-1.1
2016-12-16T05:36:46.187Z,-1.16
2016-12-16T05:37:55.961Z,-1.1
2016-12-16T05:39:05.442Z,-1.1
2016-12-16T05:40:15.454Z,-1.09
2016-12-16T05:41:24.634Z,-1.07
2016-12-16T05:42:34.130Z,-1.05
2016-12-16T05:43:43.920Z,-1.1
2016-12-16T05:44:53.709Z,-1.07
2016-12-16T05:46:03.336Z,-0.96
2016-12-16T05:47:13.154Z,-0.92
2016-12-16T05:48:23.003Z,-0.94
2016-12-16T05:49:32.834Z,-1
2016-12-16T05:50:42.638Z,-0.96
2016-12-16T05:51:51.801Z,-0.94
2016-12-16T05:53:00.668Z,-1
2016-12-16T05:54:10.225Z,-0.92
2016-12-16T05:55:19.694Z,-0.94
2016-12-16T05:56:29.494Z,-0.96
2016-12-16T05:57:39.291Z,-1
2016-12-16T05:58:48.751Z,-0.95
2016-12-16T05:59:58.343Z,-0.85
2016-12-16T06:01:08.129Z,-1.05
2016-12-16T06:02:17.622Z,-0.85
2016-12-16T06:03:27.084Z,-0.94
2016-12-16T06:04:36.563Z,-0.94
2016-12-16T06:05:46.348Z,-0.98
2016-12-16T06:06:56.147Z,-0.89
2016-12-16T06:08:05.474Z,-0.94
2016-12-16T06:09:14.998Z,-1.02
2016-12-16T06:10:24.831Z,-0.98
2016-12-16T06:11:34.329Z,-1.03
2016-12-16T06:12:44.141Z,-0.92
2016-12-16T06:13:53.321Z,-0.98
2016-12-16T06:15:02.863Z,-0.95
2016-12-16T06:16:12.389Z,-1.06
2016-12-16T06:17:22.194Z,-1.06
2016-12-16T06:18:31.969Z,-1.12
2016-12-16T06:19:41.769Z,-1.2
2016-12-16T06:20:51.557Z,-1.23
2016-12-16T06:22:00.724Z,-1.09
2016-12-16T06:23:10.203Z,-1.07
2016-12-16T06:24:19.812Z,-1.09
2016-12-16T06:25:29.633Z,-1.05
2016-12-16T06:26:39.462Z,-1.06
2016-12-16T06:27:49.271Z,-1.06
2016-12-16T06:28:58.731Z,-1.09
2016-12-16T06:30:08.692Z,-1.1
2016-12-16T06:31:18.511Z,-0.98
2016-12-16T06:32:28.318Z,-0.84
2016-12-16T06:33:38.141Z,-0.87
2016-12-16T06:34:47.987Z,-0.98
2016-12-16T06:35:57.589Z,-0.88
2016-12-16T06:37:06.775Z,-0.88
2016-12-16T06:38:16.620Z,-1.03
2016-12-16T06:39:26.088Z,-0.96
2016-12-16T06:40:34.951Z,-0.85
2016-12-16T06:41:44.735Z,-0.89
2016-12-16T06:42:53.927Z,-0.92
2016-12-16T06:44:03.404Z,-0.98
2016-12-16T06:45:13.334Z,-1.09
2016-12-16T06:46:22.502Z,-1.07
2016-12-16T06:47:32.407Z,-0.94
2016-12-16T06:48:42.189Z,-0.95
2016-12-16T06:49:51.673Z,-0.96
2016-12-16T06:51:01.455Z,-0.91
2016-12-16T06:52:11.241Z,-0.88
2016-12-16T06:53:20.713Z,-0.92
2016-12-16T06:54:30.659Z,-0.96
2016-12-16T06:55:39.904Z,-0.91
2016-12-16T06:56:49.384Z,-0.91
2016-12-16T06:57:59.180Z,-1.02
2016-12-16T06:59:08.951Z,-0.92
2016-12-16T07:00:18.441Z,-0.81
2016-12-16T07:01:28.234Z,-0.89
2016-12-16T07:02:38.028Z,-0.89
2016-12-16T07:03:47.510Z,-0.92
2016-12-16T07:04:57.167Z,-0.88
2016-12-16T07:06:06.996Z,-0.87
2016-12-16T07:07:16.165Z,-0.88
2016-12-16T07:08:25.952Z,-0.85
2016-12-16T07:09:35.469Z,-0.94
2016-12-16T07:10:45.248Z,-0.89
2016-12-16T07:11:54.531Z,-0.92
2016-12-16T07:13:04.355Z,-0.89
2016-12-16T07:14:13.214Z,-0.96
2016-12-16T07:15:23.077Z,-0.92
2016-12-16T07:16:32.870Z,-0.96
2016-12-16T07:17:42.360Z,-1.1
2016-12-16T07:18:52.164Z,-1.09
2016-12-16T07:20:01.955Z,-1.07
2016-12-16T07:21:11.729Z,-1.06
2016-12-16T07:22:21.375Z,-0.98
2016-12-16T07:23:31.180Z,-1.09
2016-12-16T07:24:40.988Z,-0.85
2016-12-16T07:25:50.772Z,-0.88
2016-12-16T07:27:00.582Z,-0.95
2016-12-16T07:28:10.369Z,-0.91
2016-12-16T07:29:19.840Z,-0.84
2016-12-16T07:30:29.632Z,-0.78
2016-12-16T07:31:39.321Z,-0.88
2016-12-16T07:32:49.112Z,-0.85
2016-12-16T07:33:58.269Z,-0.78
2016-12-16T07:35:08.051Z,-0.82
2016-12-16T07:36:17.533Z,-0.7
2016-12-16T07:37:27.467Z,-0.71
2016-12-16T07:38:37.356Z,-0.77
2016-12-16T07:39:47.151Z,-0.77
2016-12-16T07:40:56.950Z,-0.87
2016-12-16T07:42:06.531Z,-0.84
2016-12-16T07:43:16.383Z,-0.89
2016-12-16T07:44:26.244Z,-0.89
2016-12-16T07:45:35.728Z,-0.91
2016-12-16T07:46:45.314Z,-0.96
2016-12-16T07:47:55.158Z,-0.91
2016-12-16T07:49:04.325Z,-0.88
2016-12-16T07:50:14.154Z,-0.98
2016-12-16T07:51:23.932Z,-1.05
2016-12-16T07:52:33.401Z,-1.02
2016-12-16T07:53:42.902Z,-0.96
2016-12-16T07:54:52.729Z,-0.92
2016-12-16T07:56:02.192Z,-1.02
2016-12-16T07:57:12.017Z,-0.98
2016-12-16T07:58:21.512Z,-0.88
2016-12-16T07:59:30.987Z,-0.98
2016-12-16T08:00:40.152Z,-0.96
2016-12-16T08:01:49.932Z,-0.89
2016-12-16T08:02:59.760Z,-0.94
2016-12-16T08:04:09.576Z,-0.82
2016-12-16T08:05:18.854Z,-0.85
2016-12-16T08:06:28.700Z,-0.87
2016-12-16T08:07:38.541Z,-0.91
2016-12-16T08:08:48.085Z,-0.85
2016-12-16T08:09:57.388Z,-0.84
2016-12-16T08:11:06.919Z,-0.7
2016-12-16T08:12:16.489Z,-0.73
2016-12-16T08:13:26.289Z,-0.77
2016-12-16T08:14:35.803Z,-0.76
2016-12-16T08:15:45.398Z,-0.87
2016-12-16T08:16:55.202Z,-0.87
2016-12-16T08:18:04.991Z,-0.88
2016-12-16T08:19:14.797Z,-0.89
2016-12-16T08:20:24.323Z,-0.87
2016-12-16T08:21:33.811Z,-0.91
2016-12-16T08:22:43.442Z,-0.81
2016-12-16T08:23:52.936Z,-0.82
2016-12-16T08:25:01.790Z,-0.85
2016-12-16T08:26:11.580Z,-0.87
2016-12-16T08:27:21.374Z,-0.77
2016-12-16T08:28:31.177Z,-0.69
2016-12-16T08:29:40.367Z,-0.73
2016-12-16T08:30:50.171Z,-0.78
2016-12-16T08:31:59.951Z,-0.81
2016-12-16T08:33:09.746Z,-0.81
2016-12-16T08:34:19.526Z,-0.88
2016-12-16T08:35:29.000Z,-0.77
2016-12-16T08:36:38.954Z,-0.78
2016-12-16T08:37:48.436Z,-0.76
2016-12-16T08:38:57.909Z,-0.85
2016-12-16T08:40:07.398Z,-0.7
2016-12-16T08:41:16.569Z,-0.73
2016-12-16T08:42:26.373Z,-0.7
2016-12-16T08:43:35.865Z,-0.71
2016-12-16T08:44:45.057Z,-0.71
2016-12-16T08:45:54.643Z,-0.73
2016-12-16T08:47:04.127Z,-0.74
2016-12-16T08:48:13.908Z,-0.76
2016-12-16T08:49:23.713Z,-0.81
2016-12-16T08:50:32.600Z,-0.77
2016-12-16T08:51:42.411Z,-0.76
2016-12-16T08:52:51.594Z,-0.78
2016-12-16T08:54:00.774Z,-0.74
2016-12-16T08:55:10.580Z,-0.69
2016-12-16T08:56:20.070Z,-0.69
2016-12-16T08:57:29.601Z,-0.74
2016-12-16T08:58:39.081Z,-0.74
2016-12-16T08:59:48.653Z,-0.77
2016-12-16T09:00:58.455Z,-0.71
2016-12-16T09:02:08.252Z,-0.73
2016-12-16T09:03:18.047Z,-0.6
2016-12-16T09:04:27.868Z,-0.56
2016-12-16T09:05:37.377Z,-0.51
2016-12-16T09:06:47.409Z,-0.58
2016-12-16T09:07:57.267Z,-0.46
2016-12-16T09:09:06.790Z,-0.55
2016-12-16T09:10:16.569Z,-0.56
2016-12-16T09:11:25.788Z,-0.6
2016-12-16T09:12:35.560Z,-0.59
2016-12-16T09:13:45.116Z,-0.66
2016-12-16T09:14:54.593Z,-0.71
2016-12-16T09:16:04.423Z,-0.74
2016-12-16T09:17:14.262Z,-0.76
2016-12-16T09:18:23.433Z,-0.71
2016-12-16T09:19:33.232Z,-0.63
2016-12-16T09:20:43.169Z,-0.58
2016-12-16T09:21:52.667Z,-0.56
2016-12-16T09:23:02.206Z,-0.53
2016-12-16T09:24:12.043Z,-0.59
2016-12-16T09:25:21.526Z,-0.63
2016-12-16T09:26:31.347Z,-0.59
2016-12-16T09:27:40.824Z,-0.6
2016-12-16T09:28:50.628Z,-0.7
2016-12-16T09:30:00.129Z,-0.58
2016-12-16T09:31:09.612Z,-0.64
2016-12-16T09:32:19.448Z,-0.52
2016-12-16T09:33:29.342Z,-0.55
2016-12-16T09:34:38.874Z,-0.49
2016-12-16T09:35:48.390Z,-0.55
2016-12-16T09:36:57.563Z,-0.52
2016-12-16T09:38:07.420Z,-0.52
2016-12-16T09:39:17.230Z,-0.6
2016-12-16T09:40:26.725Z,-0.52
2016-12-16T09:41:36.320Z,-0.56
2016-12-16T09:42:45.792Z,-0.48
2016-12-16T09:43:55.586Z,-0.4
2016-12-16T09:45:04.781Z,-0.35
2016-12-16T09:46:14.629Z,-0.31
2016-12-16T09:47:24.447Z,-0.2
2016-12-16T09:48:34.258Z,-0.1
2016-12-16T09:49:44.107Z,-0.12
2016-12-16T09:50:53.706Z,-0.16
2016-12-16T09:52:03.561Z,-0.06
2016-12-16T09:53:13.057Z,-0.15
2016-12-16T09:54:22.555Z,-0.13
2016-12-16T09:55:32.382Z,0.01
2016-12-16T09:56:42.173Z,-0.01
2016-12-16T09:57:51.939Z,-0.04
2016-12-16T09:59:01.437Z,0.05
2016-12-16T10:00:10.715Z,0.05
2016-12-16T10:01:20.192Z,-0.04
2016-12-16T10:02:29.752Z,-0.07
2016-12-16T10:03:39.261Z,-0.12
2016-12-16T10:04:49.068Z,-0.19
2016-12-16T10:05:58.403Z,-0.16
2016-12-16T10:07:07.888Z,-0.12
2016-12-16T10:08:17.732Z,-0.12
2016-12-16T10:09:27.535Z,-0.2
2016-12-16T10:10:37.353Z,-0.22
2016-12-16T10:11:47.135Z,-0.33
2016-12-16T10:12:56.642Z,-0.35
2016-12-16T10:14:06.521Z,-0.35
2016-12-16T10:15:16.110Z,-0.34
2016-12-16T10:16:25.909Z,-0.34
2016-12-16T10:17:35.398Z,-0.37
2016-12-16T10:18:44.918Z,-0.31
2016-12-16T10:19:54.796Z,-0.23
2016-12-16T10:21:04.610Z,-0.3
2016-12-16T10:22:14.267Z,-0.28
2016-12-16T10:23:24.086Z,-0.2
2016-12-16T10:24:33.699Z,-0.23
2016-12-16T10:25:43.523Z,-0.27
2016-12-16T10:26:53.397Z,-0.2
2016-12-16T10:28:03.203Z,-0.27
2016-12-16T10:29:12.792Z,-0.23
2016-12-16T10:30:22.349Z,-0.19
2016-12-16T10:31:32.145Z,-0.13
2016-12-16T10:32:41.648Z,-0.16
2016-12-16T10:33:51.450Z,-0.19
2016-12-16T10:35:01.151Z,-0.12
2016-12-16T10:36:10.956Z,-0.16
2016-12-16T10:37:20.761Z,-0.09
2016-12-16T10:38:30.261Z,-0.02
2016-12-16T10:39:40.120Z,-0.02
2016-12-16T10:40:49.638Z,-0.09
2016-12-16T10:41:59.461Z,-0.15
2016-12-16T10:43:09.485Z,-0.04
2016-12-16T10:44:19.035Z,0.01
2016-12-16T10:45:28.543Z,-0.04
2016-12-16T10:46:38.497Z,0.05
2016-12-16T10:47:48.354Z,0.02
2016-12-16T10:48:58.181Z,0.05
2016-12-16T10:50:07.976Z,-0.02
2016-12-16T10:51:17.815Z,-0.07
2016-12-16T10:52:27.302Z,-0.06
2016-12-16T10:53:37.145Z,0.05
2016-12-16T10:54:46.643Z,0.05
2016-12-16T10:55:56.458Z,0.05
2016-12-16T10:57:05.665Z,0.06
2016-12-16T10:58:15.483Z,0.11
2016-12-16T10:59:25.008Z,0.08
2016-12-16T11:00:34.819Z,0.02
2016-12-16T11:01:43.999Z,0.06
2016-12-16T11:02:53.854Z,0.06
2016-12-16T11:04:03.729Z,0.06
2016-12-16T11:05:13.433Z,0.02
2016-12-16T11:06:22.345Z,0.01
2016-12-16T11:07:31.854Z,0.11
2016-12-16T11:08:41.747Z,0.12
2016-12-16T11:09:51.255Z,0.14
2016-12-16T11:11:01.055Z,0.21
2016-12-16T11:12:10.892Z,0.21
2016-12-16T11:13:20.676Z,0.28
2016-12-16T11:14:30.660Z,0.25
2016-12-16T11:15:40.509Z,0.22
2016-12-16T11:16:50.309Z,0.16
2016-12-16T11:17:59.594Z,0.12
2016-12-16T11:19:09.390Z,0.05
2016-12-16T11:20:19.057Z,0.09
2016-12-16T11:21:28.884Z,0.12
2016-12-16T11:22:38.370Z,0.06
2016-12-16T11:23:47.856Z,0.03
2016-12-16T11:24:57.464Z,0.01
2016-12-16T11:26:07.331Z,0.11
2016-12-16T11:27:17.134Z,0.03
2016-12-16T11:28:27.095Z,0.08
2016-12-16T11:29:36.623Z,0.11
2016-12-16T11:30:45.808Z,0.11
2016-12-16T11:31:55.612Z,0.12
2016-12-16T11:33:04.809Z,0.22
2016-12-16T11:34:14.408Z,0.14
2016-12-16T11:35:23.889Z,0.3
2016-12-16T11:36:33.499Z,0.39
2016-12-16T11:37:42.979Z,0.33
2016-12-16T11:38:52.749Z,0.39
2016-12-16T11:40:02.541Z,0.38
2016-12-16T11:41:11.717Z,0.38
2016-12-16T11:42:21.546Z,0.39
2016-12-16T11:43:31.063Z,0.4
2016-12-16T11:44:41.000Z,0.4
2016-12-16T11:45:50.785Z,0.45
2016-12-16T11:47:00.276Z,0.49
2016-12-16T11:48:09.757Z,0.53
2016-12-16T11:49:19.249Z,0.53
2016-12-16T11:50:29.054Z,0.5
2016-12-16T11:51:38.883Z,0.43
2016-12-16T11:52:48.065Z,0.45
2016-12-16T11:53:57.560Z,0.43
2016-12-16T11:55:39.340Z,0.45
2016-12-16T11:56:49.123Z,0.48
2016-12-16T11:57:58.949Z,0.49
2016-12-16T11:59:08.502Z,0.53
2016-12-16T12:00:18.338Z,0.53
2016-12-16T12:01:28.180Z,0.45
2016-12-16T12:02:38.009Z,0.53
2016-12-16T12:03:47.800Z,0.35
2016-12-16T12:04:57.655Z,0.35
2016-12-16T12:06:07.458Z,0.42
2016-12-16T12:07:17.244Z,0.43
2016-12-16T12:08:27.032Z,0.48
2016-12-16T12:09:36.532Z,0.5
2016-12-16T12:10:46.488Z,0.54
2016-12-16T12:11:55.970Z,0.58
2016-12-16T12:13:05.791Z,0.56
2016-12-16T12:14:14.969Z,0.57
2016-12-16T12:15:24.755Z,0.58
2016-12-16T12:16:34.563Z,0.56
2016-12-16T12:17:44.049Z,0.6
2016-12-16T12:18:53.896Z,0.54
2016-12-16T12:20:03.720Z,0.57
2016-12-16T12:21:13.550Z,0.45
2016-12-16T12:22:23.044Z,0.56
2016-12-16T12:23:32.242Z,0.56
2016-12-16T12:24:42.052Z,0.64
2016-12-16T12:25:51.584Z,0.74
2016-12-16T12:27:01.422Z,0.64
2016-12-16T12:28:11.239Z,0.71
2016-12-16T12:29:21.024Z,0.76
2016-12-16T12:30:30.493Z,0.86
2016-12-16T12:31:40.390Z,0.94
2016-12-16T12:32:49.953Z,1
2016-12-16T12:33:59.746Z,1.12
2016-12-16T12:35:09.539Z,1.22
2016-12-16T12:36:19.339Z,1.42
2016-12-16T12:37:28.505Z,1.4
2016-12-16T12:38:38.368Z,1.47
2016-12-16T12:39:48.219Z,1.4
2016-12-16T12:40:58.043Z,1.3
2016-12-16T12:42:07.591Z,1.25
2016-12-16T12:43:17.399Z,1.29
2016-12-16T12:44:27.232Z,1.22
2016-12-16T12:45:37.036Z,1.25
2016-12-16T12:46:46.824Z,1.24
2016-12-16T12:47:56.641Z,1.17
2016-12-16T12:49:06.123Z,1.22
2016-12-16T12:50:16.051Z,1.28
2016-12-16T12:51:25.559Z,1.35
2016-12-16T12:52:35.067Z,1.33
2016-12-16T12:53:44.591Z,1.3
2016-12-16T12:54:54.082Z,1.46
2016-12-16T12:56:03.685Z,1.48
2016-12-16T12:57:13.541Z,1.46
2016-12-16T12:58:23.100Z,1.51
2016-12-16T12:59:32.613Z,1.55
2016-12-16T13:00:42.241Z,1.46
2016-12-16T13:01:52.035Z,1.51
2016-12-16T13:03:01.234Z,1.5
2016-12-16T13:04:10.729Z,1.47
2016-12-16T13:05:20.668Z,1.48
2016-12-16T13:06:30.465Z,1.54
2016-12-16T13:07:40.284Z,1.57
2016-12-16T13:08:50.113Z,1.53
2016-12-16T13:09:59.615Z,1.58
2016-12-16T13:11:08.811Z,1.55
2016-12-16T13:12:18.625Z,1.57
2016-12-16T13:13:28.446Z,1.6
2016-12-16T13:14:38.430Z,1.57
2016-12-16T13:15:47.915Z,1.72
2016-12-16T13:16:57.740Z,1.7
2016-12-16T13:18:07.232Z,1.58
2016-12-16T13:19:16.753Z,1.67
2016-12-16T13:20:26.560Z,1.51
2016-12-16T13:21:36.125Z,1.74
2016-12-16T13:22:45.619Z,1.55
2016-12-16T13:23:55.441Z,1.69
2016-12-16T13:25:04.970Z,1.67
2016-12-16T13:26:14.784Z,1.53
2016-12-16T13:27:24.607Z,1.58
2016-12-16T13:28:34.449Z,1.51
2016-12-16T13:29:43.971Z,1.5
2016-12-16T13:30:53.488Z,1.51
2016-12-16T13:32:03.294Z,1.48
2016-12-16T13:33:13.082Z,1.53
2016-12-16T13:34:22.885Z,1.53
2016-12-16T13:35:32.684Z,1.6
2016-12-16T13:36:42.476Z,1.54
2016-12-16T13:37:51.968Z,1.62
2016-12-16T13:39:01.493Z,1.54
2016-12-16T13:40:11.278Z,1.55
2016-12-16T13:41:21.101Z,1.43
2016-12-16T13:42:30.919Z,1.47
2016-12-16T13:43:40.761Z,1.47
2016-12-16T13:44:50.692Z,1.5
2016-12-16T13:46:00.180Z,1.46
2016-12-16T13:47:09.857Z,1.42
2016-12-16T13:48:19.884Z,1.4
2016-12-16T13:49:31.164Z,1.47
2016-12-16T13:50:41.082Z,1.46
2016-12-16T13:51:51.076Z,1.47
2016-12-16T13:53:00.340Z,1.47
2016-12-16T13:54:09.960Z,1.43
2016-12-16T13:55:19.480Z,1.39
2016-12-16T13:56:28.952Z,1.47
2016-12-16T13:57:38.790Z,1.33
2016-12-16T13:58:48.355Z,1.33
2016-12-16T13:59:58.170Z,1.24
2016-12-16T14:01:07.381Z,1.28
2016-12-16T14:02:17.255Z,1.25
2016-12-16T14:03:26.796Z,1.25
2016-12-16T14:04:36.359Z,1.35
2016-12-16T14:05:45.885Z,1.33
2016-12-16T14:06:55.433Z,1.32
2016-12-16T14:08:04.984Z,1.33
2016-12-16T14:09:14.520Z,1.28
2016-12-16T14:10:24.404Z,1.17
2016-12-16T14:11:34.104Z,1.21
2016-12-16T14:12:43.947Z,1.14
2016-12-16T14:13:53.459Z,1.14
2016-12-16T14:15:03.291Z,1.02
2016-12-16T14:16:13.222Z,1.06
2016-12-16T14:17:22.795Z,1.06
2016-12-16T14:18:32.295Z,1
2016-12-16T14:19:42.313Z,0.94
2016-12-16T14:20:52.204Z,0.85
2016-12-16T14:22:01.772Z,0.86
2016-12-16T14:23:11.599Z,0.81
2016-12-16T14:24:21.452Z,0.76
2016-12-16T14:25:31.480Z,0.74
2016-12-16T14:26:41.034Z,0.64
2016-12-16T14:27:51.123Z,0.61
2016-12-16T14:29:00.906Z,0.63
2016-12-16T14:30:10.846Z,0.58
2016-12-16T14:31:20.947Z,0.56
2016-12-16T14:32:30.749Z,0.53
2016-12-16T14:33:40.995Z,0.39
2016-12-16T14:34:50.384Z,0.42
2016-12-16T14:36:00.548Z,0.42
2016-12-16T14:37:10.094Z,0.42
2016-12-16T14:38:19.755Z,0.36
2016-12-16T14:39:29.269Z,0.31
2016-12-16T14:40:38.759Z,0.36
2016-12-16T14:41:48.599Z,0.28
2016-12-16T14:42:58.388Z,0.31
2016-12-16T14:44:08.207Z,0.16
2016-12-16T14:45:18.024Z,0.17
2016-12-16T14:46:27.514Z,0.16
2016-12-16T14:47:37.106Z,0.14
2016-12-16T14:48:47.016Z,0.09
2016-12-16T14:49:56.867Z,0.16
2016-12-16T14:51:06.400Z,0.16
2016-12-16T14:52:16.246Z,0.09
2016-12-16T14:53:28.073Z,0.06
2016-12-16T14:54:38.441Z,0.02
2016-12-16T14:55:48.876Z,0.05
2016-12-16T14:56:58.674Z,0.06
2016-12-16T14:58:07.866Z,0.03
2016-12-16T14:59:17.352Z,-0.04
2016-12-16T15:00:27.297Z,0.08
2016-12-16T15:01:37.116Z,0.08
2016-12-16T15:02:46.922Z,0.01
2016-12-16T15:03:56.751Z,-0.13
2016-12-16T15:05:06.566Z,0.02
2016-12-16T15:06:16.384Z,-0.01
2016-12-16T15:07:26.201Z,-0.06
2016-12-16T15:08:36.414Z,-0.1